createdAt,value
2023-02-17T00:02:05.909Z,8.42
2023-02-17T00:08:07.818Z,8.27
2023-02-17T00:14:13.521Z,8.08
2023-02-17T00:20:15.404Z,8.16
2023-02-17T00:26:19.074Z,8.21
2023-02-17T00:32:21.005Z,8.39
2023-02-17T00:38:22.918Z,8.08
2023-02-17T00:44:25.566Z,8.15
2023-02-17T00:50:27.472Z,8.13
2023-02-17T00:56:29.356Z,8.17
2023-02-17T01:02:31.240Z,8.21
2023-02-17T01:08:33.204Z,7.98
2023-02-17T01:14:35.119Z,8.09
2023-02-17T01:20:38.871Z,7.91
2023-02-17T01:26:41.056Z,8.03
2023-02-17T01:32:42.978Z,7.81
2023-02-17T01:38:46.500Z,7.86
2023-02-17T01:45:19.260Z,7.83
2023-02-17T01:51:26.559Z,7.91
2023-02-17T01:57:32.880Z,8.07
2023-02-17T02:03:37.448Z,7.87
2023-02-17T02:09:47.246Z,7.91
2023-02-17T02:16:19.017Z,7.99
2023-02-17T02:22:51.616Z,8.06
2023-02-17T02:29:06.060Z,8.16
2023-02-17T02:35:54.595Z,8.06
2023-02-17T02:42:02.992Z,8.17
2023-02-17T02:48:04.906Z,7.98
2023-02-17T02:54:47.967Z,8.12
2023-02-17T03:01:14.142Z,8.26
2023-02-17T03:07:31.932Z,8.19
2023-02-17T03:13:39.382Z,8.24
2023-02-17T03:19:42.129Z,8.34
2023-02-17T03:25:45.201Z,8.23
2023-02-17T03:31:47.416Z,8.18
2023-02-17T03:37:49.357Z,8.29
2023-02-17T03:43:51.356Z,8.25
2023-02-17T03:49:53.294Z,8.35
2023-02-17T03:55:55.172Z,8.30
2023-02-17T04:01:57.116Z,8.20
2023-02-17T04:07:59.050Z,8.28
2023-02-17T04:14:01.058Z,8.45
2023-02-17T04:20:03.667Z,8.46
2023-02-17T04:26:07.722Z,8.48
2023-02-17T04:32:09.827Z,8.40
2023-02-17T04:38:12.233Z,8.64
2023-02-17T04:44:14.127Z,8.72
2023-02-17T04:50:16.416Z,8.80
2023-02-17T04:56:18.480Z,8.86
2023-02-17T05:02:20.417Z,8.73
2023-02-17T05:08:22.414Z,8.77
2023-02-17T05:14:24.447Z,8.80
2023-02-17T05:20:26.486Z,9.04
2023-02-17T05:26:28.572Z,8.95
2023-02-17T05:32:30.546Z,8.99
2023-02-17T05:38:33.140Z,8.92
2023-02-17T05:44:35.088Z,8.97
2023-02-17T05:50:37.002Z,9.00
2023-02-17T05:56:39.652Z,9.11
2023-02-17T06:02:41.672Z,9.31
2023-02-17T06:08:43.616Z,9.25
2023-02-17T06:14:45.507Z,9.24
2023-02-17T06:20:47.451Z,9.19
2023-02-17T06:26:49.322Z,9.25
2023-02-17T06:32:51.443Z,9.18
2023-02-17T06:38:53.363Z,9.50
2023-02-17T06:44:55.239Z,9.37
2023-02-17T06:50:57.112Z,9.33
2023-02-17T06:56:59.018Z,9.57
2023-02-17T07:03:01.050Z,9.74
2023-02-17T07:09:03.472Z,9.65
2023-02-17T07:15:05.897Z,10.06
2023-02-17T07:21:09.874Z,9.92
2023-02-17T07:27:12.238Z,10.07
2023-02-17T07:33:14.139Z,10.05
2023-02-17T07:39:16.586Z,10.15
2023-02-17T07:45:18.774Z,10.26
2023-02-17T07:51:22.822Z,10.12
2023-02-17T07:57:24.796Z,10.07
2023-02-17T08:03:26.704Z,10.40
2023-02-17T08:09:47.313Z,10.09
2023-02-17T08:15:49.214Z,10.20
2023-02-17T08:21:51.215Z,10.29
2023-02-17T08:27:54.451Z,10.35
2023-02-17T08:33:57.224Z,10.31
2023-02-17T08:39:59.337Z,10.37
2023-02-17T08:46:01.295Z,10.45
2023-02-17T08:52:03.943Z,10.61
2023-02-17T08:58:05.925Z,10.66
2023-02-17T09:04:10.319Z,10.61
2023-02-17T09:10:13.393Z,10.59
2023-02-17T09:16:15.479Z,10.90
2023-02-17T09:22:30.707Z,10.69
2023-02-17T09:28:34.193Z,10.85
2023-02-17T09:34:39.493Z,10.93
2023-02-17T09:41:14.379Z,10.88
2023-02-17T09:47:23.271Z,11.01
2023-02-17T09:53:57.963Z,10.90
2023-02-17T10:00:34.023Z,11.08
2023-02-17T10:06:49.866Z,11.14
2023-02-17T10:13:02.506Z,11.21
2023-02-17T10:19:26.757Z,11.23
2023-02-17T10:25:56.343Z,11.33
2023-02-17T10:32:23.512Z,11.46
2023-02-17T10:38:41.299Z,11.43
2023-02-17T10:44:44.107Z,11.52
2023-02-17T10:50:47.153Z,11.38
2023-02-17T10:56:54.236Z,11.60
2023-02-17T11:02:56.259Z,11.63
2023-02-17T11:09:07.574Z,11.74
2023-02-17T11:15:22.922Z,11.89
2023-02-17T11:21:24.991Z,11.92
2023-02-17T11:27:27.564Z,12.08
2023-02-17T11:33:40.591Z,12.31
2023-02-17T11:39:54.590Z,12.46
2023-02-17T11:46:12.192Z,12.52
2023-02-17T11:52:45.088Z,12.76
2023-02-17T11:58:46.848Z,13.06
2023-02-17T12:05:28.918Z,13.52
2023-02-17T12:11:41.002Z,13.81
2023-02-17T12:18:06.943Z,14.24
2023-02-17T12:24:37.799Z,14.64
2023-02-17T12:30:57.980Z,14.92
2023-02-17T12:37:01.107Z,14.95
2023-02-17T12:43:17.696Z,14.75
2023-02-17T12:49:40.086Z,14.70
2023-02-17T12:55:54.355Z,14.52
2023-02-17T13:02:13.227Z,14.41
2023-02-17T13:08:30.504Z,14.25
2023-02-17T13:14:49.262Z,14.45
2023-02-17T13:21:27.652Z,14.57
2023-02-17T13:27:31.072Z,14.70
2023-02-17T13:33:59.291Z,14.86
2023-02-17T13:40:24.184Z,14.80
2023-02-17T13:46:27.589Z,14.85
2023-02-17T13:52:31.985Z,14.84
2023-02-17T13:58:41.112Z,14.83
2023-02-17T14:04:43.834Z,14.74
2023-02-17T14:10:46.282Z,14.64
2023-02-17T14:17:06.325Z,14.62
2023-02-17T14:23:13.462Z,14.46
2023-02-17T14:29:16.453Z,14.25
2023-02-17T14:35:18.225Z,13.52
2023-02-17T14:41:20.154Z,13.02
2023-02-17T14:47:22.028Z,12.92
2023-02-17T14:53:33.274Z,12.89
2023-02-17T14:59:35.199Z,12.91
2023-02-17T15:05:37.112Z,13.06
2023-02-17T15:11:39.922Z,13.03
2023-02-17T15:17:41.834Z,13.02
2023-02-17T15:23:43.739Z,13.03
2023-02-17T15:29:45.688Z,13.04
2023-02-17T15:35:51.347Z,12.82
2023-02-17T15:41:56.244Z,12.50
2023-02-17T15:48:21.482Z,12.17
2023-02-17T15:54:23.479Z,11.83
2023-02-17T16:00:29.692Z,11.67
2023-02-17T16:06:31.725Z,11.50
2023-02-17T16:12:33.722Z,11.38
2023-02-17T16:18:35.610Z,11.26
2023-02-17T16:24:37.527Z,11.25
2023-02-17T16:30:41.693Z,11.19
2023-02-17T16:36:44.143Z,11.38
2023-02-17T16:42:46.028Z,11.46
2023-02-17T16:48:48.283Z,11.41
2023-02-17T16:54:50.364Z,11.54
2023-02-17T17:00:55.043Z,11.62
2023-02-17T17:06:56.942Z,11.62
2023-02-17T17:12:59.796Z,11.56
2023-02-17T17:19:02.668Z,11.67
2023-02-17T17:25:04.715Z,11.72
2023-02-17T17:31:06.735Z,11.73
2023-02-17T17:37:10.872Z,11.76
2023-02-17T17:43:12.752Z,11.71
2023-02-17T17:49:17.879Z,11.63
2023-02-17T17:55:19.811Z,11.62
2023-02-17T18:01:22.591Z,11.66
2023-02-17T18:07:26.572Z,11.72
2023-02-17T18:13:28.746Z,11.66
2023-02-17T18:19:32.416Z,11.72
2023-02-17T18:25:34.346Z,11.79
2023-02-17T18:31:36.700Z,11.85
2023-02-17T18:37:41.024Z,11.89
2023-02-17T18:43:42.997Z,11.91
2023-02-17T18:49:44.899Z,11.90
2023-02-17T18:55:46.796Z,11.85
2023-02-17T19:01:48.795Z,11.84
2023-02-17T19:07:50.682Z,11.83
2023-02-17T19:13:53.450Z,11.93
2023-02-17T19:19:55.341Z,11.98
2023-02-17T19:25:57.470Z,11.89
2023-02-17T19:32:01.240Z,11.84
2023-02-17T19:38:03.213Z,11.83
2023-02-17T19:44:05.306Z,11.64
2023-02-17T19:50:08.043Z,11.07
2023-02-17T19:56:25.787Z,10.38
2023-02-17T20:02:27.813Z,10.06
2023-02-17T20:08:29.712Z,9.82
2023-02-17T20:14:31.650Z,9.61
2023-02-17T20:20:33.563Z,9.20
2023-02-17T20:26:41.682Z,9.02
2023-02-17T20:32:43.584Z,8.93
2023-02-17T20:38:45.919Z,9.06
2023-02-17T20:44:50.252Z,9.25
2023-02-17T20:50:52.291Z,9.25
2023-02-17T20:56:55.700Z,9.18
2023-02-17T21:02:57.703Z,9.28
2023-02-17T21:09:04.462Z,9.24
2023-02-17T21:15:07.064Z,9.21
2023-02-17T21:21:09.112Z,9.21
2023-02-17T21:27:10.983Z,9.08
2023-02-17T21:33:13.013Z,9.04
2023-02-17T21:39:14.966Z,9.07
2023-02-17T21:45:16.959Z,8.96
2023-02-17T21:51:19.185Z,9.04
2023-02-17T21:57:21.153Z,9.04
2023-02-17T22:03:23.454Z,8.96
2023-02-17T22:09:25.335Z,8.81
2023-02-17T22:15:27.226Z,8.89
2023-02-17T22:21:29.487Z,8.70
2023-02-17T22:27:32.279Z,8.65
2023-02-17T22:33:34.876Z,8.89
2023-02-17T22:39:36.771Z,8.70
2023-02-17T22:45:40.252Z,8.59
2023-02-17T22:51:42.173Z,8.76
2023-02-17T22:57:44.046Z,8.54
2023-02-17T23:03:47.374Z,8.59
2023-02-17T23:09:49.282Z,8.72
2023-02-17T23:15:51.482Z,8.59
2023-02-17T23:21:57.653Z,8.61
2023-02-17T23:27:59.910Z,8.63
2023-02-17T23:34:01.814Z,8.65
2023-02-17T23:40:05.430Z,8.81
2023-02-17T23:46:07.900Z,8.86
2023-02-17T23:52:11.046Z,8.79
2023-02-17T23:58:12.946Z,8.64
